createdAt,value
2022-12-25T00:01:42.654Z,2.97
2022-12-25T00:05:44.138Z,2.45
2022-12-25T00:09:45.620Z,2.90
2022-12-25T00:13:47.980Z,2.45
2022-12-25T00:17:49.428Z,2.65
2022-12-25T00:21:50.883Z,3.65
2022-12-25T00:25:53.051Z,2.83
2022-12-25T00:29:54.486Z,3.08
2022-12-25T00:33:55.921Z,3.55
2022-12-25T00:37:57.406Z,3.20
2022-12-25T00:42:17.302Z,3.58
2022-12-25T00:46:18.838Z,2.50
2022-12-25T00:50:20.409Z,3.28
2022-12-25T00:54:21.917Z,2.67
2022-12-25T00:58:24.845Z,2.20
2022-12-25T01:02:26.654Z,1.38
2022-12-25T01:06:28.810Z,1.27
2022-12-25T01:10:30.345Z,1.33
2022-12-25T01:14:31.771Z,1.52
2022-12-25T01:18:33.189Z,0.88
2022-12-25T01:22:34.758Z,1.20
2022-12-25T01:26:36.200Z,0.93
2022-12-25T01:30:37.661Z,1.45
2022-12-25T01:34:39.237Z,1.67
2022-12-25T01:38:40.786Z,1.75
2022-12-25T01:42:43.249Z,1.60
2022-12-25T01:46:45.384Z,1.33
2022-12-25T01:50:52.671Z,0.77
2022-12-25T01:55:00.085Z,0.88
2022-12-25T01:59:02.803Z,1.17
2022-12-25T02:03:04.867Z,1.58
2022-12-25T02:07:09.929Z,1.50
2022-12-25T02:11:31.341Z,1.52
2022-12-25T02:15:48.126Z,0.82
2022-12-25T02:20:11.288Z,1.70
2022-12-25T02:24:34.178Z,1.25
2022-12-25T02:28:52.097Z,1.73
2022-12-25T02:33:22.811Z,1.70
2022-12-25T02:41:41.467Z,0.80
2022-12-25T02:46:06.884Z,0.80
2022-12-25T02:50:27.865Z,1.77
2022-12-25T02:54:52.794Z,1.38
2022-12-25T02:59:12.909Z,1.20
2022-12-25T03:03:34.106Z,1.60
2022-12-25T03:07:41.968Z,1.45
2022-12-25T03:11:47.400Z,1.50
2022-12-25T03:16:08.354Z,1.98
2022-12-25T03:20:29.846Z,1.55
2022-12-25T03:24:50.285Z,2.20
2022-12-25T03:28:51.807Z,2.08
2022-12-25T03:33:18.020Z,1.55
2022-12-25T03:37:42.857Z,1.45
2022-12-25T03:42:08.340Z,1.20
2022-12-25T03:46:33.927Z,1.20
2022-12-25T03:51:04.013Z,2.15
2022-12-25T03:55:29.828Z,1.52
2022-12-25T03:59:50.043Z,1.02
2022-12-25T04:08:30.164Z,1.63
2022-12-25T04:17:09.695Z,0.73
2022-12-25T04:21:29.929Z,0.98
2022-12-25T04:25:50.147Z,1.52
2022-12-25T04:30:10.403Z,0.98
2022-12-25T04:38:32.232Z,0.68
2022-12-25T04:42:33.854Z,1.90
2022-12-25T04:46:35.407Z,1.85
2022-12-25T04:50:36.851Z,1.40
2022-12-25T04:54:38.699Z,2.22
2022-12-25T04:58:41.045Z,1.98
2022-12-25T05:02:42.694Z,1.95
2022-12-25T05:06:44.311Z,1.77
2022-12-25T05:10:45.857Z,2.05
2022-12-25T05:14:47.299Z,1.00
2022-12-25T05:18:49.778Z,1.75
2022-12-25T05:22:51.177Z,1.55
2022-12-25T05:26:52.631Z,1.50
2022-12-25T05:30:57.140Z,2.17
2022-12-25T05:35:00.254Z,1.20
2022-12-25T05:39:01.698Z,0.85
2022-12-25T05:43:03.276Z,2.00
2022-12-25T05:47:04.952Z,1.33
2022-12-25T05:51:08.007Z,1.73
2022-12-25T05:55:09.441Z,1.52
2022-12-25T05:59:10.859Z,1.35
2022-12-25T06:03:12.603Z,0.80
2022-12-25T06:07:14.239Z,1.17
2022-12-25T06:11:15.748Z,1.30
2022-12-25T06:15:17.238Z,1.52
2022-12-25T06:19:19.737Z,0.93
2022-12-25T06:23:21.320Z,1.10
2022-12-25T06:27:22.781Z,1.60
2022-12-25T06:31:24.667Z,0.65
2022-12-25T06:35:26.709Z,0.73
2022-12-25T06:39:28.212Z,0.73
2022-12-25T06:43:29.736Z,1.13
2022-12-25T06:47:31.174Z,0.80
2022-12-25T06:51:32.858Z,0.80
2022-12-25T06:55:34.352Z,0.82
2022-12-25T06:59:35.825Z,0.70
2022-12-25T07:03:37.327Z,1.15
2022-12-25T07:07:41.109Z,1.27
2022-12-25T07:11:42.597Z,0.88
2022-12-25T07:15:44.050Z,1.13
2022-12-25T07:19:48.709Z,1.35
2022-12-25T07:23:50.433Z,1.33
2022-12-25T07:27:51.922Z,1.65
2022-12-25T07:31:59.023Z,1.73
2022-12-25T07:36:01.271Z,1.25
2022-12-25T07:40:03.398Z,1.25
2022-12-25T07:44:04.949Z,1.85
2022-12-25T07:48:09.482Z,1.00
2022-12-25T07:52:38.035Z,0.85
2022-12-25T07:56:42.934Z,1.27
2022-12-25T08:00:47.030Z,1.55
2022-12-25T08:04:48.533Z,1.05
2022-12-25T08:08:49.946Z,0.68
2022-12-25T08:12:51.996Z,0.85
2022-12-25T08:16:53.514Z,1.05
2022-12-25T08:20:55.657Z,1.27
2022-12-25T08:24:57.130Z,0.50
2022-12-25T08:28:58.806Z,1.42
2022-12-25T08:33:00.237Z,1.38
2022-12-25T08:37:01.721Z,1.55
2022-12-25T08:41:03.996Z,1.38
2022-12-25T08:45:05.876Z,1.55
2022-12-25T08:49:07.346Z,1.40
2022-12-25T08:53:08.859Z,1.20
2022-12-25T08:57:10.317Z,1.63
2022-12-25T09:01:13.145Z,1.85
2022-12-25T09:05:14.807Z,1.63
2022-12-25T09:09:16.306Z,1.13
2022-12-25T09:13:19.841Z,2.42
2022-12-25T09:17:21.331Z,1.80
2022-12-25T09:21:22.751Z,2.28
2022-12-25T09:25:24.234Z,2.20
2022-12-25T09:29:25.664Z,2.25
2022-12-25T09:33:30.140Z,2.75
2022-12-25T09:37:31.638Z,2.15
2022-12-25T09:41:53.826Z,2.88
2022-12-25T09:45:57.195Z,2.20
2022-12-25T09:50:13.886Z,1.48
2022-12-25T09:54:24.276Z,2.15
2022-12-25T09:58:26.812Z,1.63
2022-12-25T10:02:43.067Z,2.40
2022-12-25T10:07:09.539Z,1.52
2022-12-25T10:11:47.417Z,2.17
2022-12-25T10:16:11.822Z,2.35
2022-12-25T10:20:51.483Z,2.35
2022-12-25T10:24:57.278Z,1.52
2022-12-25T10:29:06.532Z,1.30
2022-12-25T10:33:16.653Z,2.00
2022-12-25T10:37:18.761Z,1.48
2022-12-25T10:41:42.705Z,3.50
2022-12-25T10:45:48.588Z,2.35
2022-12-25T10:49:50.086Z,1.88
2022-12-25T10:53:51.522Z,2.35
2022-12-25T10:57:54.222Z,3.10
2022-12-25T11:02:03.980Z,1.33
2022-12-25T11:06:07.252Z,1.52
2022-12-25T11:10:31.642Z,1.95
2022-12-25T11:14:33.264Z,2.10
2022-12-25T11:18:48.287Z,3.15
2022-12-25T11:22:50.261Z,3.45
2022-12-25T11:26:55.036Z,2.05
2022-12-25T11:31:03.318Z,2.63
2022-12-25T11:35:12.433Z,1.73
2022-12-25T11:39:22.122Z,2.63
2022-12-25T11:43:32.243Z,2.70
2022-12-25T11:47:58.718Z,2.40
2022-12-25T11:52:01.231Z,1.83
2022-12-25T11:56:11.363Z,2.10
2022-12-25T12:00:15.892Z,3.03
2022-12-25T12:04:25.887Z,1.52
2022-12-25T12:08:33.359Z,4.07
2022-12-25T12:12:48.857Z,1.85
2022-12-25T12:16:50.901Z,2.05
2022-12-25T12:21:05.709Z,3.92
2022-12-25T12:25:07.813Z,2.13
2022-12-25T12:29:28.649Z,2.90
2022-12-25T12:33:41.283Z,3.60
2022-12-25T12:37:46.150Z,3.28
2022-12-25T12:41:49.372Z,2.83
2022-12-25T12:45:57.969Z,2.55
2022-12-25T12:50:01.190Z,3.13
2022-12-25T12:54:18.135Z,1.80
2022-12-25T12:58:34.342Z,2.33
2022-12-25T13:03:05.884Z,1.67
2022-12-25T13:07:19.826Z,1.67
2022-12-25T13:11:24.634Z,1.90
2022-12-25T13:15:30.151Z,1.20
2022-12-25T13:19:31.596Z,1.67
2022-12-25T13:23:37.781Z,1.67
2022-12-25T13:27:39.238Z,2.78
2022-12-25T13:31:41.200Z,3.03
2022-12-25T13:35:44.184Z,2.20
2022-12-25T13:39:52.512Z,2.72
2022-12-25T13:43:58.309Z,1.85
2022-12-25T13:48:14.213Z,2.08
2022-12-25T13:52:20.227Z,2.20
2022-12-25T13:56:21.710Z,3.88
2022-12-25T14:00:28.532Z,3.78
2022-12-25T14:04:29.994Z,3.30
2022-12-25T14:08:35.064Z,4.43
2022-12-25T14:12:36.663Z,3.45
2022-12-25T14:16:43.385Z,2.60
2022-12-25T14:21:07.136Z,4.13
2022-12-25T14:25:15.660Z,6.68
2022-12-25T14:29:22.484Z,4.38
2022-12-25T14:33:28.724Z,5.57
2022-12-25T14:37:32.638Z,3.65
2022-12-25T14:41:41.668Z,3.97
2022-12-25T14:45:43.252Z,4.93
2022-12-25T14:49:44.991Z,5.80
2022-12-25T14:53:50.584Z,2.78
2022-12-25T14:58:04.781Z,4.80
2022-12-25T15:02:19.055Z,10.43
2022-12-25T15:06:24.663Z,6.75
2022-12-25T15:10:59.101Z,2.60
2022-12-25T15:14:48.106Z,2.35
2022-12-25T15:18:50.135Z,3.25
2022-12-25T15:23:18.252Z,2.78
2022-12-25T15:27:17.089Z,1.88
2022-12-25T15:31:22.837Z,2.05
2022-12-25T15:35:24.798Z,2.40
2022-12-25T15:39:26.356Z,1.77
2022-12-25T15:43:43.112Z,2.78
2022-12-25T15:47:44.742Z,1.83
2022-12-25T15:51:47.172Z,1.85
2022-12-25T15:55:49.153Z,2.58
2022-12-25T15:59:50.573Z,2.20
2022-12-25T16:03:52.099Z,1.70
2022-12-25T16:07:53.684Z,1.85
2022-12-25T16:11:55.131Z,3.13
2022-12-25T16:15:56.596Z,2.72
2022-12-25T16:19:58.093Z,2.28
2022-12-25T16:23:59.594Z,2.20
2022-12-25T16:28:03.497Z,1.73
2022-12-25T16:32:05.045Z,1.77
2022-12-25T16:36:06.886Z,2.72
2022-12-25T16:40:12.677Z,2.97
2022-12-25T16:44:15.844Z,2.55
2022-12-25T16:48:17.420Z,3.97
2022-12-25T16:52:18.856Z,1.73
2022-12-25T16:56:20.668Z,3.50
2022-12-25T17:00:22.424Z,2.05
2022-12-25T17:04:23.963Z,2.65
2022-12-25T17:08:25.436Z,3.15
2022-12-25T17:12:26.869Z,3.42
2022-12-25T17:16:31.132Z,3.10
2022-12-25T17:20:32.800Z,4.20
2022-12-25T17:24:36.253Z,4.15
2022-12-25T17:28:37.754Z,2.50
2022-12-25T17:32:39.165Z,4.22
2022-12-25T17:36:40.640Z,3.80
2022-12-25T17:40:42.409Z,2.47
2022-12-25T17:44:44.319Z,3.58
2022-12-25T17:48:46.267Z,2.97
2022-12-25T17:52:47.802Z,2.33
2022-12-25T17:56:49.376Z,2.75
2022-12-25T18:00:50.994Z,3.08
2022-12-25T18:04:52.474Z,3.90
2022-12-25T18:08:55.354Z,3.65
2022-12-25T18:12:56.788Z,1.80
2022-12-25T18:16:58.229Z,2.53
2022-12-25T18:20:59.768Z,1.75
2022-12-25T18:25:01.181Z,1.98
2022-12-25T18:29:03.675Z,2.42
2022-12-25T18:33:05.115Z,4.25
2022-12-25T18:37:06.563Z,2.05
2022-12-25T18:41:09.720Z,2.45
2022-12-25T18:45:14.812Z,2.20
2022-12-25T18:49:16.309Z,3.30
2022-12-25T18:53:17.794Z,2.65
2022-12-25T18:57:19.430Z,2.33
2022-12-25T19:01:23.261Z,2.58
2022-12-25T19:05:25.121Z,2.83
2022-12-25T19:09:26.729Z,1.33
2022-12-25T19:13:28.150Z,2.75
2022-12-25T19:17:31.861Z,2.47
2022-12-25T19:21:37.846Z,2.45
2022-12-25T19:25:40.488Z,2.65
2022-12-25T19:29:41.924Z,2.65
2022-12-25T19:33:43.425Z,2.75
2022-12-25T19:37:44.857Z,2.42
2022-12-25T19:41:46.495Z,2.45
2022-12-25T19:45:48.266Z,1.92
2022-12-25T19:49:53.175Z,2.55
2022-12-25T19:53:56.254Z,2.13
2022-12-25T19:57:59.090Z,2.05
2022-12-25T20:02:00.945Z,1.42
2022-12-25T20:06:04.290Z,2.28
2022-12-25T20:10:07.104Z,2.25
2022-12-25T20:14:10.475Z,2.15
2022-12-25T20:18:11.983Z,2.38
2022-12-25T20:22:13.498Z,1.95
2022-12-25T20:26:17.274Z,1.98
2022-12-25T20:30:18.756Z,1.33
2022-12-25T20:34:20.192Z,3.25
2022-12-25T20:38:21.630Z,1.73
2022-12-25T20:42:23.257Z,1.65
2022-12-25T20:46:25.773Z,1.20
2022-12-25T20:50:27.435Z,1.25
2022-12-25T20:54:28.866Z,1.73
2022-12-25T20:58:30.487Z,1.48
2022-12-25T21:02:36.564Z,1.25
2022-12-25T21:06:38.242Z,1.50
2022-12-25T21:10:39.660Z,1.65
2022-12-25T21:14:41.105Z,1.40
2022-12-25T21:18:42.686Z,1.40
2022-12-25T21:22:44.168Z,1.00
2022-12-25T21:26:48.207Z,2.10
2022-12-25T21:30:51.117Z,1.08
2022-12-25T21:34:52.576Z,1.48
2022-12-25T21:38:55.414Z,1.23
2022-12-25T21:42:56.905Z,1.35
2022-12-25T21:46:58.428Z,1.73
2022-12-25T21:51:27.251Z,1.05
2022-12-25T21:55:28.795Z,1.60
2022-12-25T21:59:30.284Z,2.10
2022-12-25T22:03:32.038Z,1.20
2022-12-25T22:07:33.515Z,1.25
2022-12-25T22:11:53.776Z,0.82
2022-12-25T22:20:24.033Z,0.63
2022-12-25T22:24:25.691Z,1.02
2022-12-25T22:28:27.747Z,0.85
2022-12-25T22:32:29.360Z,0.95
2022-12-25T22:36:31.081Z,1.00
2022-12-25T22:40:33.045Z,0.77
2022-12-25T22:44:34.704Z,1.38
2022-12-25T22:48:36.232Z,0.73
2022-12-25T22:52:38.498Z,1.25
2022-12-25T22:56:40.974Z,0.95
2022-12-25T23:00:46.394Z,1.23
2022-12-25T23:04:48.343Z,1.17
2022-12-25T23:08:49.846Z,1.13
2022-12-25T23:13:09.941Z,1.35
2022-12-25T23:17:31.803Z,1.02
2022-12-25T23:21:52.039Z,1.08
2022-12-25T23:30:12.145Z,0.77
2022-12-25T23:34:13.711Z,1.13
2022-12-25T23:38:15.250Z,1.23
2022-12-25T23:42:17.113Z,1.27
2022-12-25T23:46:19.100Z,1.25
2022-12-25T23:50:20.672Z,1.17
2022-12-25T23:54:25.310Z,1.38
2022-12-25T23:58:27.962Z,0.90
